sensor_id;sensor_type;location;lat;lon;timestamp;pressure;altitude;pressure_sealevel;temperature;humidity
63285;BME280;49409;55.708;37.522;2022-07-21T00:00:54;98159.63;;;19.42;62.55
63285;BME280;49409;55.708;37.522;2022-07-21T00:03:19;98167.50;;;19.49;62.23
63285;BME280;49409;55.708;37.522;2022-07-21T00:05:45;98161.66;;;19.47;62.35
63285;BME280;49409;55.708;37.522;2022-07-21T00:08:11;98157.84;;;19.50;62.34
63285;BME280;49409;55.708;37.522;2022-07-21T00:10:38;98176.09;;;19.68;62.02
63285;BME280;49409;55.708;37.522;2022-07-21T00:13:04;98166.97;;;19.56;61.89
63285;BME280;49409;55.708;37.522;2022-07-21T00:15:30;98170.53;;;19.62;62.26
63285;BME280;49409;55.708;37.522;2022-07-21T00:17:57;98163.94;;;19.54;62.35
63285;BME280;49409;55.708;37.522;2022-07-21T00:20:23;98153.81;;;19.51;62.08
63285;BME280;49409;55.708;37.522;2022-07-21T00:22:49;98183.72;;;19.68;62.48
63285;BME280;49409;55.708;37.522;2022-07-21T00:25:15;98162.94;;;19.57;62.21
63285;BME280;49409;55.708;37.522;2022-07-21T00:27:41;98177.13;;;19.71;62.00
63285;BME280;49409;55.708;37.522;2022-07-21T00:30:09;98166.22;;;19.61;62.24
63285;BME280;49409;55.708;37.522;2022-07-21T00:32:35;98176.13;;;19.74;62.11
63285;BME280;49409;55.708;37.522;2022-07-21T00:35:01;98160.88;;;19.64;62.05
63285;BME280;49409;55.708;37.522;2022-07-21T00:37:27;98177.91;;;19.77;61.96
63285;BME280;49409;55.708;37.522;2022-07-21T00:39:54;98172.56;;;19.68;62.03
63285;BME280;49409;55.708;37.522;2022-07-21T00:42:24;98169.53;;;19.71;62.18
63285;BME280;49409;55.708;37.522;2022-07-21T00:44:50;98160.63;;;19.61;62.06
63285;BME280;49409;55.708;37.522;2022-07-21T00:47:19;98150.22;;;19.56;62.23
63285;BME280;49409;55.708;37.522;2022-07-21T00:49:45;98174.84;;;19.64;62.60
63285;BME280;49409;55.708;37.522;2022-07-21T00:52:11;98161.13;;;19.60;62.28
63285;BME280;49409;55.708;37.522;2022-07-21T00:54:37;98160.38;;;19.59;61.97
63285;BME280;49409;55.708;37.522;2022-07-21T00:57:03;98165.97;;;19.65;62.16
63285;BME280;49409;55.708;37.522;2022-07-21T00:59:29;98162.66;;;19.67;62.25
63285;BME280;49409;55.708;37.522;2022-07-21T01:01:56;98171.03;;;19.67;62.11
63285;BME280;49409;55.708;37.522;2022-07-21T01:04:22;98169.50;;;19.66;61.90
63285;BME280;49409;55.708;37.522;2022-07-21T01:06:48;98166.97;;;19.56;62.33
63285;BME280;49409;55.708;37.522;2022-07-21T01:09:14;98166.22;;;19.61;62.20
63285;BME280;49409;55.708;37.522;2022-07-21T01:11:40;98170.53;;;19.62;62.08
63285;BME280;49409;55.708;37.522;2022-07-21T01:14:06;98140.09;;;19.42;62.41
63285;BME280;49409;55.708;37.522;2022-07-21T01:16:32;98150.75;;;19.49;62.38
63285;BME280;49409;55.708;37.522;2022-07-21T01:18:58;98148.22;;;19.51;62.04
63285;BME280;49409;55.708;37.522;2022-07-21T01:21:32;98153.03;;;19.56;62.15
63285;BME280;49409;55.708;37.522;2022-07-21T01:23:59;98170.00;;;19.58;62.44
63285;BME280;49409;55.708;37.522;2022-07-21T01:26:25;98168.50;;;19.57;62.61
63285;BME280;49409;55.708;37.522;2022-07-21T01:28:51;98127.94;;;19.34;62.50
63285;BME280;49409;55.708;37.522;2022-07-21T01:31:17;98178.13;;;19.68;62.48
63285;BME280;49409;55.708;37.522;2022-07-21T01:33:43;98171.56;;;19.71;62.28
63285;BME280;49409;55.708;37.522;2022-07-21T01:36:09;98174.63;;;19.73;62.38
63285;BME280;49409;55.708;37.522;2022-07-21T01:38:35;98169.00;;;19.78;62.52
63285;BME280;49409;55.708;37.522;2022-07-21T01:41:19;98153.28;;;19.70;61.94
63285;BME280;49409;55.708;37.522;2022-07-21T01:44:08;98163.47;;;19.73;62.23
63285;BME280;49409;55.708;37.522;2022-07-21T01:46:36;98153.03;;;19.68;62.40
63285;BME280;49409;55.708;37.522;2022-07-21T01:49:03;98172.84;;;19.75;62.06
63285;BME280;49409;55.708;37.522;2022-07-21T01:51:29;98161.91;;;19.72;62.25
63285;BME280;49409;55.708;37.522;2022-07-21T01:53:55;98164.22;;;19.73;62.77
63285;BME280;49409;55.708;37.522;2022-07-21T01:56:23;98158.38;;;19.71;62.31
63285;BME280;49409;55.708;37.522;2022-07-21T01:58:52;98170.78;;;19.81;62.22
63285;BME280;49409;55.708;37.522;2022-07-21T02:01:19;98163.47;;;19.73;62.17
63285;BME280;49409;55.708;37.522;2022-07-21T02:03:45;98152.78;;;19.77;62.09
63285;BME280;49409;55.708;37.522;2022-07-21T02:06:12;98170.28;;;19.77;61.84
63285;BME280;49409;55.708;37.522;2022-07-21T02:08:38;98161.38;;;19.62;62.09
63285;BME280;49409;55.708;37.522;2022-07-21T02:11:05;98164.94;;;19.62;62.30
63285;BME280;49409;55.708;37.522;2022-07-21T02:13:31;98168.47;;;19.69;62.37
63285;BME280;49409;55.708;37.522;2022-07-21T02:15:57;98159.84;;;19.67;62.64
63285;BME280;49409;55.708;37.522;2022-07-21T02:18:23;98166.50;;;19.75;62.49
63285;BME280;49409;55.708;37.522;2022-07-21T02:20:48;98159.88;;;19.84;62.41
63285;BME280;49409;55.708;37.522;2022-07-21T02:23:18;98165.22;;;19.81;62.32
63285;BME280;49409;55.708;37.522;2022-07-21T02:25:44;98151.50;;;19.72;62.14
63285;BME280;49409;55.708;37.522;2022-07-21T02:28:10;98171.28;;;19.80;62.52
63285;BME280;49409;55.708;37.522;2022-07-21T02:30:36;98170.03;;;19.81;62.38
63285;BME280;49409;55.708;37.522;2022-07-21T02:33:02;98162.66;;;19.84;62.39
63285;BME280;49409;55.708;37.522;2022-07-21T02:35:27;98157.59;;;19.82;62.31
63285;BME280;49409;55.708;37.522;2022-07-21T02:37:53;98162.41;;;19.87;62.58
63285;BME280;49409;55.708;37.522;2022-07-21T02:40:19;98148.97;;;19.80;62.45
63285;BME280;49409;55.708;37.522;2022-07-21T02:42:44;98160.88;;;19.86;62.52
63285;BME280;49409;55.708;37.522;2022-07-21T02:45:10;98163.66;;;19.86;62.50
63285;BME280;49409;55.708;37.522;2022-07-21T02:47:56;98140.84;;;19.88;62.15
63285;BME280;49409;55.708;37.522;2022-07-21T02:50:24;98133.50;;;19.73;62.64
63285;BME280;49409;55.708;37.522;2022-07-21T02:52:50;98152.75;;;19.83;62.52
63285;BME280;49409;55.708;37.522;2022-07-21T02:55:18;98156.56;;;19.91;62.54
63285;BME280;49409;55.708;37.522;2022-07-21T02:57:44;98134.00;;;19.72;62.61
63285;BME280;49409;55.708;37.522;2022-07-21T03:00:10;98146.19;;;19.80;62.53
63285;BME280;49409;55.708;37.522;2022-07-21T03:02:36;98140.59;;;19.80;62.90
63285;BME280;49409;55.708;37.522;2022-07-21T03:05:02;98141.88;;;19.79;62.76
63285;BME280;49409;55.708;37.522;2022-07-21T03:07:28;98133.00;;;19.75;62.97
63285;BME280;49409;55.708;37.522;2022-07-21T03:09:54;98158.84;;;19.92;62.69
63285;BME280;49409;55.708;37.522;2022-07-21T03:12:19;98139.34;;;19.81;63.07
63285;BME280;49409;55.708;37.522;2022-07-21T03:14:45;98135.75;;;19.80;62.71
63285;BME280;49409;55.708;37.522;2022-07-21T03:17:10;98144.13;;;19.86;62.90
63285;BME280;49409;55.708;37.522;2022-07-21T03:19:36;98133.00;;;19.75;62.86
63285;BME280;49409;55.708;37.522;2022-07-21T03:22:02;98147.97;;;19.83;63.18
63285;BME280;49409;55.708;37.522;2022-07-21T03:24:27;98146.16;;;19.86;63.12
63285;BME280;49409;55.708;37.522;2022-07-21T03:26:55;98142.38;;;19.89;62.64
63285;BME280;49409;55.708;37.522;2022-07-21T03:29:21;98156.56;;;19.96;62.97
63285;BME280;49409;55.708;37.522;2022-07-21T03:31:47;98134.75;;;19.89;62.81
63285;BME280;49409;55.708;37.522;2022-07-21T03:34:12;98137.28;;;19.87;62.91
63285;BME280;49409;55.708;37.522;2022-07-21T03:36:38;98126.63;;;19.86;62.67
63285;BME280;49409;55.708;37.522;2022-07-21T03:39:03;98154.03;;;19.93;62.77
63285;BME280;49409;55.708;37.522;2022-07-21T03:41:29;98134.50;;;19.76;63.34
63285;BME280;49409;55.708;37.522;2022-07-21T03:43:54;98146.44;;;19.76;63.35
63285;BME280;49409;55.708;37.522;2022-07-21T03:46:20;98144.41;;;19.77;63.65
63285;BME280;49409;55.708;37.522;2022-07-21T03:48:45;98131.94;;;19.67;63.54
63285;BME280;49409;55.708;37.522;2022-07-21T03:51:11;98141.13;;;19.73;63.67
63285;BME280;49409;55.708;37.522;2022-07-21T03:53:36;98152.78;;;19.77;63.63
63285;BME280;49409;55.708;37.522;2022-07-21T03:56:02;98144.66;;;19.79;63.75
63285;BME280;49409;55.708;37.522;2022-07-21T03:58:27;98142.88;;;19.81;63.89
63285;BME280;49409;55.708;37.522;2022-07-21T04:00:53;98124.88;;;19.77;63.65
63285;BME280;49409;55.708;37.522;2022-07-21T04:03:19;98142.09;;;19.92;63.36
63285;BME280;49409;55.708;37.522;2022-07-21T04:05:44;98147.41;;;20.01;63.46
63285;BME280;49409;55.708;37.522;2022-07-21T04:08:10;98143.59;;;20.05;63.26
63285;BME280;49409;55.708;37.522;2022-07-21T04:10:39;98157.56;;;20.05;63.54
63285;BME280;49409;55.708;37.522;2022-07-21T04:13:08;98141.56;;;19.99;63.11
63285;BME280;49409;55.708;37.522;2022-07-21T04:15:35;98142.59;;;19.96;63.14
63285;BME280;49409;55.708;37.522;2022-07-21T04:18:01;98121.56;;;19.84;63.42
63285;BME280;49409;55.708;37.522;2022-07-21T04:20:26;98153.22;;;20.04;63.34
63285;BME280;49409;55.708;37.522;2022-07-21T04:22:52;98146.13;;;20.03;63.31
63285;BME280;49409;55.708;37.522;2022-07-21T04:25:19;98152.97;;;20.01;63.12
63285;BME280;49409;55.708;37.522;2022-07-21T04:27:46;98154.53;;;19.97;63.61
63285;BME280;49409;55.708;37.522;2022-07-21T04:30:15;98148.69;;;20.00;63.41
63285;BME280;49409;55.708;37.522;2022-07-21T04:32:41;98139.81;;;19.91;63.69
63285;BME280;49409;55.708;37.522;2022-07-21T04:35:07;98150.97;;;19.96;63.61
63285;BME280;49409;55.708;37.522;2022-07-21T04:37:33;98143.13;;;19.89;63.57
63285;BME280;49409;55.708;37.522;2022-07-21T04:39:58;98139.28;;;19.92;64.01
63285;BME280;49409;55.708;37.522;2022-07-21T04:42:24;98157.31;;;20.03;64.06
63285;BME280;49409;55.708;37.522;2022-07-21T04:44:50;98136.50;;;19.92;64.30
63285;BME280;49409;55.708;37.522;2022-07-21T04:47:15;98143.34;;;20.03;63.94
63285;BME280;49409;55.708;37.522;2022-07-21T04:49:41;98147.38;;;20.13;63.62
63285;BME280;49409;55.708;37.522;2022-07-21T04:52:06;98142.06;;;20.09;64.30
63285;BME280;49409;55.708;37.522;2022-07-21T04:54:32;98137.97;;;20.16;63.78
63285;BME280;49409;55.708;37.522;2022-07-21T04:56:57;98144.00;;;20.31;63.64
63285;BME280;49409;55.708;37.522;2022-07-21T04:59:24;98145.53;;;20.32;63.70
63285;BME280;49409;55.708;37.522;2022-07-21T05:01:50;98148.31;;;20.38;63.65
63285;BME280;49409;55.708;37.522;2022-07-21T05:04:15;98140.44;;;20.36;63.55
63285;BME280;49409;55.708;37.522;2022-07-21T05:06:41;98149.50;;;20.54;63.03
63285;BME280;49409;55.708;37.522;2022-07-21T05:09:06;98139.59;;;20.53;62.85
63285;BME280;49409;55.708;37.522;2022-07-21T05:11:32;98151.25;;;20.63;63.23
63285;BME280;49409;55.708;37.522;2022-07-21T05:13:57;98160.63;;;20.65;62.68
63285;BME280;49409;55.708;37.522;2022-07-21T05:16:23;98161.38;;;20.71;62.35
63285;BME280;49409;55.708;37.522;2022-07-21T05:18:49;98145.63;;;20.74;62.36
63285;BME280;49409;55.708;37.522;2022-07-21T05:21:14;98162.03;;;20.89;62.21
63285;BME280;49409;55.708;37.522;2022-07-21T05:23:40;98144.78;;;20.85;61.54
63285;BME280;49409;55.708;37.522;2022-07-21T05:26:06;98158.50;;;20.88;61.80
63285;BME280;49409;55.708;37.522;2022-07-21T05:28:31;98160.44;;;20.99;62.09
63285;BME280;49409;55.708;37.522;2022-07-21T05:30:57;98150.03;;;20.99;61.16
63285;BME280;49409;55.708;37.522;2022-07-21T05:33:22;98159.72;;;20.93;61.49
63285;BME280;49409;55.708;37.522;2022-07-21T05:35:48;98150.59;;;20.92;60.93
63285;BME280;49409;55.708;37.522;2022-07-21T05:38:13;98172.94;;;20.98;60.73
63285;BME280;49409;55.708;37.522;2022-07-21T05:40:39;98151.66;;;20.84;60.53
63285;BME280;49409;55.708;37.522;2022-07-21T05:43:05;98168.53;;;21.08;60.20
63285;BME280;49409;55.708;37.522;2022-07-21T05:45:31;98139.53;;;21.11;59.71
63285;BME280;49409;55.708;37.522;2022-07-21T05:47:56;98157.59;;;21.46;59.73
63285;BME280;49409;55.708;37.522;2022-07-21T05:50:22;98154.19;;;21.59;59.15
63285;BME280;49409;55.708;37.522;2022-07-21T05:52:47;98171.31;;;21.80;58.56
63285;BME280;49409;55.708;37.522;2022-07-21T05:55:13;98171.84;;;21.78;57.79
63285;BME280;49409;55.708;37.522;2022-07-21T05:57:39;98152.63;;;21.64;57.76
63285;BME280;49409;55.708;37.522;2022-07-21T06:00:05;98156.34;;;21.72;57.45
63285;BME280;49409;55.708;37.522;2022-07-21T06:02:31;98160.34;;;21.82;57.90
63285;BME280;49409;55.708;37.522;2022-07-21T06:04:58;98164.31;;;21.92;57.67
63285;BME280;49409;55.708;37.522;2022-07-21T06:07:23;98172.00;;;21.86;57.05
63285;BME280;49409;55.708;37.522;2022-07-21T06:09:49;98169.44;;;21.88;57.34
63285;BME280;49409;55.708;37.522;2022-07-21T06:12:14;98157.84;;;21.78;57.63
63285;BME280;49409;55.708;37.522;2022-07-21T06:14:40;98160.81;;;21.86;57.12
63285;BME280;49409;55.708;37.522;2022-07-21T06:17:06;98163.63;;;21.86;56.58
63285;BME280;49409;55.708;37.522;2022-07-21T06:19:31;98175.38;;;22.04;56.91
63285;BME280;49409;55.708;37.522;2022-07-21T06:21:57;98167.63;;;22.15;57.06
63285;BME280;49409;55.708;37.522;2022-07-21T06:24:23;98156.66;;;22.17;55.74
63285;BME280;49409;55.708;37.522;2022-07-21T06:26:48;98171.41;;;22.43;54.87
63285;BME280;49409;55.708;37.522;2022-07-21T06:29:14;98172.72;;;22.42;56.28
63285;BME280;49409;55.708;37.522;2022-07-21T06:31:40;98167.94;;;22.36;54.72
63285;BME280;49409;55.708;37.522;2022-07-21T06:34:06;98177.53;;;22.41;54.21
63285;BME280;49409;55.708;37.522;2022-07-21T06:36:31;98176.44;;;22.50;54.43
63285;BME280;49409;55.708;37.522;2022-07-21T06:38:57;98168.72;;;22.56;53.98
63285;BME280;49409;55.708;37.522;2022-07-21T06:41:23;98164.25;;;22.66;54.09
63285;BME280;49409;55.708;37.522;2022-07-21T06:43:48;98182.66;;;22.81;54.14
63285;BME280;49409;55.708;37.522;2022-07-21T06:46:14;98184.94;;;22.82;53.73
63285;BME280;49409;55.708;37.522;2022-07-21T06:48:39;98185.84;;;22.71;53.23
63285;BME280;49409;55.708;37.522;2022-07-21T06:51:05;98188.88;;;22.54;53.50
63285;BME280;49409;55.708;37.522;2022-07-21T06:53:31;98173.53;;;22.36;54.16
63285;BME280;49409;55.708;37.522;2022-07-21T06:55:56;98198.41;;;22.46;53.77
63285;BME280;49409;55.708;37.522;2022-07-21T06:58:23;98192.47;;;22.30;53.94
63285;BME280;49409;55.708;37.522;2022-07-21T07:00:50;98209.28;;;22.30;54.19
63285;BME280;49409;55.708;37.522;2022-07-21T07:03:19;98211.84;;;22.28;53.73
63285;BME280;49409;55.708;37.522;2022-07-21T07:05:47;98196.19;;;22.14;54.07
63285;BME280;49409;55.708;37.522;2022-07-21T07:08:12;98224.19;;;22.14;54.40
63285;BME280;49409;55.708;37.522;2022-07-21T07:10:39;98217.06;;;22.13;55.57
63285;BME280;49409;55.708;37.522;2022-07-21T07:13:06;98225.00;;;22.09;55.54
63285;BME280;49409;55.708;37.522;2022-07-21T07:15:31;98230.38;;;22.07;55.59
63285;BME280;49409;55.708;37.522;2022-07-21T07:17:57;98229.16;;;22.02;55.88
63285;BME280;49409;55.708;37.522;2022-07-21T07:20:23;98238.06;;;22.01;56.57
63285;BME280;49409;55.708;37.522;2022-07-21T07:22:48;98223.44;;;21.83;56.72
63285;BME280;49409;55.708;37.522;2022-07-21T07:25:14;98234.34;;;21.92;56.30
63285;BME280;49409;55.708;37.522;2022-07-21T07:27:47;98233.06;;;21.57;56.23
63285;BME280;49409;55.708;37.522;2022-07-21T07:30:14;98238.16;;;21.59;56.41
63285;BME280;49409;55.708;37.522;2022-07-21T07:32:39;98239.38;;;21.64;56.71
63285;BME280;49409;55.708;37.522;2022-07-21T07:35:09;98239.97;;;21.56;57.20
63285;BME280;49409;55.708;37.522;2022-07-21T07:37:39;98241.47;;;21.57;57.14
63285;BME280;49409;55.708;37.522;2022-07-21T07:40:08;98254.34;;;21.72;57.36
63285;BME280;49409;55.708;37.522;2022-07-21T07:42:35;98260.97;;;21.74;56.99
63285;BME280;49409;55.708;37.522;2022-07-21T07:45:01;98256.38;;;21.71;57.79
63285;BME280;49409;55.708;37.522;2022-07-21T07:47:26;98270.94;;;21.64;57.74
63285;BME280;49409;55.708;37.522;2022-07-21T07:49:52;98260.84;;;21.55;58.00
63285;BME280;49409;55.708;37.522;2022-07-21T07:52:21;98274.75;;;21.67;58.10
63285;BME280;49409;55.708;37.522;2022-07-21T07:54:47;98271.31;;;21.49;57.94
63285;BME280;49409;55.708;37.522;2022-07-21T07:57:13;98272.09;;;21.44;58.24
63285;BME280;49409;55.708;37.522;2022-07-21T07:59:38;98288.34;;;21.51;59.29
63285;BME280;49409;55.708;37.522;2022-07-21T08:02:04;98293.88;;;21.63;58.97
63285;BME280;49409;55.708;37.522;2022-07-21T08:04:30;98277.94;;;21.46;58.67
63285;BME280;49409;55.708;37.522;2022-07-21T08:06:55;98293.97;;;21.40;59.40
63285;BME280;49409;55.708;37.522;2022-07-21T08:09:21;98317.41;;;21.37;60.69
63285;BME280;49409;55.708;37.522;2022-07-21T08:11:47;98296.44;;;21.08;61.47
63285;BME280;49409;55.708;37.522;2022-07-21T08:14:14;98316.78;;;21.08;62.05
63285;BME280;49409;55.708;37.522;2022-07-21T08:16:40;98318.06;;;21.07;62.39
63285;BME280;49409;55.708;37.522;2022-07-21T08:19:05;98320.63;;;21.05;62.65
63285;BME280;49409;55.708;37.522;2022-07-21T08:21:31;98315.78;;;21.00;62.46
63285;BME280;49409;55.708;37.522;2022-07-21T08:23:59;98311.47;;;20.99;61.79
63285;BME280;49409;55.708;37.522;2022-07-21T08:26:25;98311.97;;;21.03;62.60
63285;BME280;49409;55.708;37.522;2022-07-21T08:28:55;98305.81;;;21.10;62.27
63285;BME280;49409;55.708;37.522;2022-07-21T08:31:22;98331.88;;;21.41;62.21
63285;BME280;49409;55.708;37.522;2022-07-21T08:33:49;98340.44;;;21.60;63.18
63285;BME280;49409;55.708;37.522;2022-07-21T08:36:15;98327.84;;;21.78;63.05
63285;BME280;49409;55.708;37.522;2022-07-21T08:38:41;98335.78;;;22.10;62.13
63285;BME280;49409;55.708;37.522;2022-07-21T08:41:06;98346.81;;;22.32;62.80
63285;BME280;49409;55.708;37.522;2022-07-21T08:43:34;98345.81;;;22.60;62.66
63285;BME280;49409;55.708;37.522;2022-07-21T08:45:59;98347.59;;;22.82;60.37
63285;BME280;49409;55.708;37.522;2022-07-21T08:48:26;98337.13;;;22.83;58.25
63285;BME280;49409;55.708;37.522;2022-07-21T08:50:55;98353.38;;;22.90;57.38
63285;BME280;49409;55.708;37.522;2022-07-21T08:53:21;98357.00;;;22.85;58.50
63285;BME280;49409;55.708;37.522;2022-07-21T08:55:47;98353.38;;;22.90;57.78
63285;BME280;49409;55.708;37.522;2022-07-21T08:58:13;98356.56;;;23.05;57.90
63285;BME280;49409;55.708;37.522;2022-07-21T09:00:42;98364.72;;;23.28;57.73
63285;BME280;49409;55.708;37.522;2022-07-21T09:03:26;98364.97;;;23.49;56.76
63285;BME280;49409;55.708;37.522;2022-07-21T09:08:32;98375.34;;;23.35;55.67
63285;BME280;49409;55.708;37.522;2022-07-21T09:11:11;98382.22;;;23.34;55.40
63285;BME280;49409;55.708;37.522;2022-07-21T09:13:37;98384.13;;;23.26;55.16
63285;BME280;49409;55.708;37.522;2022-07-21T09:16:03;98376.59;;;23.15;54.99
63285;BME280;49409;55.708;37.522;2022-07-21T09:18:29;98368.78;;;23.08;54.54
63285;BME280;49409;55.708;37.522;2022-07-21T09:20:55;98390.81;;;23.23;55.04
63285;BME280;49409;55.708;37.522;2022-07-21T09:23:22;98380.34;;;23.23;54.34
63285;BME280;49409;55.708;37.522;2022-07-21T09:25:56;98386.22;;;23.44;53.26
63285;BME280;49409;55.708;37.522;2022-07-21T09:28:26;98387.81;;;23.59;53.77
63285;BME280;49409;55.708;37.522;2022-07-21T09:36:19;98400.72;;;24.05;52.69
63285;BME280;49409;55.708;37.522;2022-07-21T09:38:51;98393.09;;;24.19;52.75
63285;BME280;49409;55.708;37.522;2022-07-21T09:41:23;98395.78;;;24.25;51.81
63285;BME280;49409;55.708;37.522;2022-07-21T09:43:50;98406.69;;;24.47;49.90
63285;BME280;49409;55.708;37.522;2022-07-21T09:48:48;98397.31;;;24.58;50.11
63285;BME280;49409;55.708;37.522;2022-07-21T09:51:29;98419.22;;;24.92;51.39
63285;BME280;49409;55.708;37.522;2022-07-21T09:54:02;98414.91;;;24.91;49.79
63285;BME280;49409;55.708;37.522;2022-07-21T09:56:33;98410.78;;;24.92;50.27
63285;BME280;49409;55.708;37.522;2022-07-21T09:59:00;98405.16;;;24.92;49.04
63285;BME280;49409;55.708;37.522;2022-07-21T10:01:28;98403.19;;;24.73;47.82
63285;BME280;49409;55.708;37.522;2022-07-21T10:03:55;98411.41;;;24.71;48.13
63285;BME280;49409;55.708;37.522;2022-07-21T10:06:30;98415.28;;;24.68;48.32
63285;BME280;49409;55.708;37.522;2022-07-21T10:08:57;98408.47;;;24.64;47.33
63285;BME280;49409;55.708;37.522;2022-07-21T10:11:24;98394.06;;;24.54;45.87
63285;BME280;49409;55.708;37.522;2022-07-21T10:13:50;98407.72;;;24.63;46.41
63285;BME280;49409;55.708;37.522;2022-07-21T10:16:16;98432.00;;;24.80;47.88
63285;BME280;49409;55.708;37.522;2022-07-21T10:22:15;98447.19;;;25.17;46.40
63285;BME280;49409;55.708;37.522;2022-07-21T10:24:12;98448.94;;;25.33;46.53
63285;BME280;49409;55.708;37.522;2022-07-21T10:26:39;98436.06;;;25.24;44.85
63285;BME280;49409;55.708;37.522;2022-07-21T10:32:16;98438.53;;;25.68;44.75
63285;BME280;49409;55.708;37.522;2022-07-21T10:34:41;98452.59;;;25.81;43.57
63285;BME280;49409;55.708;37.522;2022-07-21T10:37:10;98445.34;;;25.72;44.94
63285;BME280;49409;55.708;37.522;2022-07-21T10:39:38;98423.16;;;25.56;44.07
63285;BME280;49409;55.708;37.522;2022-07-21T10:42:16;98451.72;;;25.73;44.22
63285;BME280;49409;55.708;37.522;2022-07-21T10:44:44;98460.22;;;25.46;44.17
63285;BME280;49409;55.708;37.522;2022-07-21T10:47:16;98447.00;;;25.28;43.91
63285;BME280;49409;55.708;37.522;2022-07-21T10:49:56;98461.06;;;25.41;43.95
63285;BME280;49409;55.708;37.522;2022-07-21T10:55:20;98479.38;;;25.61;44.04
63285;BME280;49409;55.708;37.522;2022-07-21T10:58:23;98468.09;;;25.75;44.06
63285;BME280;49409;55.708;37.522;2022-07-21T11:00:51;98449.34;;;25.77;42.64
63285;BME280;49409;55.708;37.522;2022-07-21T11:03:48;98457.53;;;25.88;41.92
63285;BME280;49409;55.708;37.522;2022-07-21T11:06:31;98446.75;;;25.66;42.25
63285;BME280;49409;55.708;37.522;2022-07-21T11:11:31;98450.69;;;25.49;42.14
63285;BME280;49409;55.708;37.522;2022-07-21T11:14:12;98460.00;;;25.31;42.09
63285;BME280;49409;55.708;37.522;2022-07-21T11:22:06;98486.16;;;25.12;43.03
63285;BME280;49409;55.708;37.522;2022-07-21T11:24:32;98481.69;;;24.90;44.05
63285;BME280;49409;55.708;37.522;2022-07-21T11:27:05;98494.41;;;24.65;44.85
63285;BME280;49409;55.708;37.522;2022-07-21T11:29:33;98492.56;;;24.48;44.39
63285;BME280;49409;55.708;37.522;2022-07-21T11:31:59;98502.91;;;24.40;44.98
63285;BME280;49409;55.708;37.522;2022-07-21T11:37:05;98509.22;;;24.65;44.28
63285;BME280;49409;55.708;37.522;2022-07-21T11:39:31;98490.31;;;24.47;44.57
63285;BME280;49409;55.708;37.522;2022-07-21T11:42:05;98493.09;;;24.66;45.77
63285;BME280;49409;55.708;37.522;2022-07-21T11:44:31;98489.53;;;24.65;45.01
63285;BME280;49409;55.708;37.522;2022-07-21T11:47:02;98508.41;;;24.84;44.94
63285;BME280;49409;55.708;37.522;2022-07-21T11:49:28;98504.66;;;24.94;44.84
63285;BME280;49409;55.708;37.522;2022-07-21T11:52:04;98508.16;;;25.14;45.20
63285;BME280;49409;55.708;37.522;2022-07-21T11:54:37;98480.84;;;25.09;45.47
63285;BME280;49409;55.708;37.522;2022-07-21T11:57:06;98497.25;;;25.24;44.46
63285;BME280;49409;55.708;37.522;2022-07-21T11:59:32;98512.53;;;25.42;43.81
63285;BME280;49409;55.708;37.522;2022-07-21T12:02:13;98516.66;;;25.67;44.55
63285;BME280;49409;55.708;37.522;2022-07-21T12:05:06;98500.72;;;25.57;43.39
63285;BME280;49409;55.708;37.522;2022-07-21T12:07:43;98508.00;;;25.52;43.72
63285;BME280;49409;55.708;37.522;2022-07-21T12:10:14;98525.22;;;25.48;43.06
63285;BME280;49409;55.708;37.522;2022-07-21T12:12:46;98529.56;;;25.49;43.45
63285;BME280;49409;55.708;37.522;2022-07-21T12:17:44;98530.72;;;25.41;43.73
63285;BME280;49409;55.708;37.522;2022-07-21T12:20:10;98536.84;;;25.12;42.90
63285;BME280;49409;55.708;37.522;2022-07-21T12:22:45;98546.41;;;25.23;43.02
63285;BME280;49409;55.708;37.522;2022-07-21T12:25:13;98551.75;;;25.07;42.93
63285;BME280;49409;55.708;37.522;2022-07-21T12:27:42;98550.88;;;24.99;42.95
63285;BME280;49409;55.708;37.522;2022-07-21T12:30:10;98555.44;;;25.16;42.22
63285;BME280;49409;55.708;37.522;2022-07-21T12:33:01;98548.53;;;25.17;43.32
63285;BME280;49409;55.708;37.522;2022-07-21T12:35:27;98555.88;;;25.06;43.17
63285;BME280;49409;55.708;37.522;2022-07-21T12:40:22;98541.75;;;24.93;43.41
63285;BME280;49409;55.708;37.522;2022-07-21T12:42:49;98561.41;;;25.12;43.53
63285;BME280;49409;55.708;37.522;2022-07-21T12:45:15;98570.47;;;25.24;42.32
63285;BME280;49409;55.708;37.522;2022-07-21T12:47:41;98569.38;;;25.27;42.45
63285;BME280;49409;55.708;37.522;2022-07-21T12:50:13;98546.56;;;25.11;42.67
63285;BME280;49409;55.708;37.522;2022-07-21T12:52:39;98565.91;;;25.02;42.97
63285;BME280;49409;55.708;37.522;2022-07-21T12:55:06;98569.06;;;24.98;43.55
63285;BME280;49409;55.708;37.522;2022-07-21T12:57:32;98539.06;;;24.68;43.71
63285;BME280;49409;55.708;37.522;2022-07-21T12:59:59;98570.72;;;24.74;44.21
63285;BME280;49409;55.708;37.522;2022-07-21T13:02:26;98542.44;;;24.67;43.69
63285;BME280;49409;55.708;37.522;2022-07-21T13:04:52;98564.88;;;24.72;43.74
63285;BME280;49409;55.708;37.522;2022-07-21T13:07:18;98586.81;;;24.74;44.51
63285;BME280;49409;55.708;37.522;2022-07-21T13:09:44;98573.41;;;24.80;43.25
63285;BME280;49409;55.708;37.522;2022-07-21T13:12:13;98588.34;;;24.75;44.29
63285;BME280;49409;55.708;37.522;2022-07-21T13:14:40;98592.78;;;24.70;44.34
63285;BME280;49409;55.708;37.522;2022-07-21T13:17:06;98570.34;;;24.65;43.65
63285;BME280;49409;55.708;37.522;2022-07-21T13:19:32;98591.47;;;24.71;43.42
63285;BME280;49409;55.708;37.522;2022-07-21T13:22:01;98606.75;;;24.57;43.41
63285;BME280;49409;55.708;37.522;2022-07-21T13:24:27;98592.28;;;24.66;43.09
63285;BME280;49409;55.708;37.522;2022-07-21T13:26:53;98590.19;;;24.72;42.87